sensor_id;sensor_type;location;lat;lon;timestamp;pressure;altitude;pressure_sealevel;temperature;humidity
14293;BME280;62290;59.420;17.842;2023-04-01T00:00:50;100502.69;;;25.83;13.98
14293;BME280;62290;59.420;17.842;2023-04-01T00:03:19;100510.31;;;25.87;14.12
14293;BME280;62290;59.420;17.842;2023-04-01T00:05:49;100481.47;;;25.70;14.16
14293;BME280;62290;59.420;17.842;2023-04-01T00:08:17;100495.06;;;25.78;14.34
14293;BME280;62290;59.420;17.842;2023-04-01T00:10:45;100508.47;;;25.88;14.43
14293;BME280;62290;59.420;17.842;2023-04-01T00:13:13;100511.00;;;25.89;14.03
14293;BME280;62290;59.420;17.842;2023-04-01T00:15:43;100512.03;;;25.88;14.48
14293;BME280;62290;59.420;17.842;2023-04-01T00:18:12;100491.97;;;25.73;13.96
14293;BME280;62290;59.420;17.842;2023-04-01T00:20:43;100527.38;;;25.88;14.50
14293;BME280;62290;59.420;17.842;2023-04-01T00:23:12;100527.53;;;25.86;14.58
14293;BME280;62290;59.420;17.842;2023-04-01T00:25:40;100527.38;;;25.88;14.55
14293;BME280;62290;59.420;17.842;2023-04-01T00:28:08;100529.38;;;25.86;14.13
14293;BME280;62290;59.420;17.842;2023-04-01T00:30:36;100534.47;;;25.89;14.51
14293;BME280;62290;59.420;17.842;2023-04-01T00:33:06;100532.59;;;25.89;14.40
14293;BME280;62290;59.420;17.842;2023-04-01T00:35:34;100511.25;;;25.78;14.15
14293;BME280;62290;59.420;17.842;2023-04-01T00:38:05;100537.00;;;25.90;14.27
14293;BME280;62290;59.420;17.842;2023-04-01T00:40:37;100524.50;;;25.89;14.34
14293;BME280;62290;59.420;17.842;2023-04-01T00:43:10;100502.75;;;25.73;14.29
14293;BME280;62290;59.420;17.842;2023-04-01T00:45:40;100526.22;;;25.90;14.15
14293;BME280;62290;59.420;17.842;2023-04-01T00:48:12;100529.91;;;25.89;14.43
14293;BME280;62290;59.420;17.842;2023-04-01T00:50:48;100534.31;;;25.90;14.47
14293;BME280;62290;59.420;17.842;2023-04-01T00:53:19;100530.06;;;25.88;14.45
14293;BME280;62290;59.420;17.842;2023-04-01T00:55:50;100531.44;;;25.92;14.25
14293;BME280;62290;59.420;17.842;2023-04-01T00:58:23;100538.56;;;25.93;14.60
14293;BME280;62290;59.420;17.842;2023-04-01T01:00:52;100537.00;;;25.90;14.55
14293;BME280;62290;59.420;17.842;2023-04-01T01:03:22;100534.13;;;25.92;14.22
14293;BME280;62290;59.420;17.842;2023-04-01T01:06:02;100540.41;;;25.92;14.23
14293;BME280;62290;59.420;17.842;2023-04-01T01:08:39;100540.41;;;25.92;14.63
14293;BME280;62290;59.420;17.842;2023-04-01T01:11:11;100542.25;;;25.92;14.23
14293;BME280;62290;59.420;17.842;2023-04-01T01:13:44;100539.53;;;25.92;14.23
14293;BME280;62290;59.420;17.842;2023-04-01T01:16:22;100540.41;;;25.92;14.66
14293;BME280;62290;59.420;17.842;2023-04-01T01:18:58;100539.41;;;25.93;14.54
14293;BME280;62290;59.420;17.842;2023-04-01T01:21:45;100531.44;;;25.92;14.21
14293;BME280;62290;59.420;17.842;2023-04-01T01:24:29;100512.25;;;25.77;14.19
14293;BME280;62290;59.420;17.842;2023-04-01T01:27:04;100535.28;;;25.89;14.30
14293;BME280;62290;59.420;17.842;2023-04-01T01:29:54;100539.88;;;25.89;14.23
14293;BME280;62290;59.420;17.842;2023-04-01T01:32:40;100540.69;;;25.89;14.22
14293;BME280;62290;59.420;17.842;2023-04-01T01:35:21;100544.41;;;25.88;14.54
14293;BME280;62290;59.420;17.842;2023-04-01T01:37:53;100540.47;;;25.83;14.26
14293;BME280;62290;59.420;17.842;2023-04-01T01:40:24;100536.31;;;25.88;14.15
14293;BME280;62290;59.420;17.842;2023-04-01T01:42:57;100536.44;;;25.87;14.54
14293;BME280;62290;59.420;17.842;2023-04-01T01:45:29;100534.91;;;25.84;14.24
14293;BME280;62290;59.420;17.842;2023-04-01T01:48:00;100540.88;;;25.88;14.33
14293;BME280;62290;59.420;17.842;2023-04-01T01:50:31;100548.78;;;25.89;14.56
14293;BME280;62290;59.420;17.842;2023-04-01T01:53:02;100521.78;;;25.71;14.31
14293;BME280;62290;59.420;17.842;2023-04-01T01:55:33;100548.66;;;25.91;14.43
14293;BME280;62290;59.420;17.842;2023-04-01T01:58:06;100549.50;;;25.91;14.50
14293;BME280;62290;59.420;17.842;2023-04-01T02:00:41;100546.25;;;25.88;14.13
14293;BME280;62290;59.420;17.842;2023-04-01T02:03:12;100545.97;;;25.91;14.53
14293;BME280;62290;59.420;17.842;2023-04-01T02:05:44;100545.78;;;25.92;14.03
14293;BME280;62290;59.420;17.842;2023-04-01T02:08:15;100554.06;;;25.91;14.41
14293;BME280;62290;59.420;17.842;2023-04-01T02:10:48;100559.47;;;25.91;14.44
14293;BME280;62290;59.420;17.842;2023-04-01T02:13:27;100561.31;;;25.90;14.49
14293;BME280;62290;59.420;17.842;2023-04-01T02:16:00;100550.66;;;25.89;14.43
14293;BME280;62290;59.420;17.842;2023-04-01T02:18:33;100561.47;;;25.89;14.42
14293;BME280;62290;59.420;17.842;2023-04-01T02:21:07;100553.66;;;25.86;14.44
14293;BME280;62290;59.420;17.842;2023-04-01T02:23:37;100556.91;;;25.89;14.01
14293;BME280;62290;59.420;17.842;2023-04-01T02:26:07;100552.81;;;25.85;14.32
14293;BME280;62290;59.420;17.842;2023-04-01T02:28:38;100556.59;;;25.92;14.36
14293;BME280;62290;59.420;17.842;2023-04-01T02:31:08;100562.00;;;25.92;14.43
14293;BME280;62290;59.420;17.842;2023-04-01T02:33:38;100554.06;;;25.91;14.05
14293;BME280;62290;59.420;17.842;2023-04-01T02:36:12;100555.22;;;25.88;14.04
14293;BME280;62290;59.420;17.842;2023-04-01T02:38:42;100560.31;;;25.91;14.11
14293;BME280;62290;59.420;17.842;2023-04-01T02:41:11;100552.81;;;25.85;13.91
14293;BME280;62290;59.420;17.842;2023-04-01T02:43:40;100553.91;;;25.92;14.12
14293;BME280;62290;59.420;17.842;2023-04-01T02:46:08;100561.84;;;25.94;14.02
14293;BME280;62290;59.420;17.842;2023-04-01T02:48:37;100565.38;;;25.94;14.19
14293;BME280;62290;59.420;17.842;2023-04-01T02:51:05;100556.28;;;25.95;14.35
14293;BME280;62290;59.420;17.842;2023-04-01T02:53:34;100555.31;;;25.96;13.99
14293;BME280;62290;59.420;17.842;2023-04-01T02:56:03;100549.34;;;25.93;14.40
14293;BME280;62290;59.420;17.842;2023-04-01T02:58:31;100555.13;;;25.98;13.97
14293;BME280;62290;59.420;17.842;2023-04-01T03:00:59;100560.72;;;25.96;14.38
14293;BME280;62290;59.420;17.842;2023-04-01T03:03:27;100555.31;;;25.96;14.03
14293;BME280;62290;59.420;17.842;2023-04-01T03:05:55;100566.09;;;25.96;14.22
14293;BME280;62290;59.420;17.842;2023-04-01T03:08:25;100556.28;;;25.95;13.94
14293;BME280;62290;59.420;17.842;2023-04-01T03:10:54;100553.59;;;25.95;13.91
14293;BME280;62290;59.420;17.842;2023-04-01T03:13:25;100567.94;;;25.96;14.40
14293;BME280;62290;59.420;17.842;2023-04-01T03:15:53;100572.50;;;25.95;14.31
14293;BME280;62290;59.420;17.842;2023-04-01T03:18:21;100570.66;;;25.96;13.87
14293;BME280;62290;59.420;17.842;2023-04-01T03:20:49;100576.91;;;25.96;14.00
14293;BME280;62290;59.420;17.842;2023-04-01T03:23:17;100577.91;;;25.95;14.32
14293;BME280;62290;59.420;17.842;2023-04-01T03:25:47;100580.59;;;25.95;13.94
14293;BME280;62290;59.420;17.842;2023-04-01T03:28:17;100559.38;;;25.83;13.82
14293;BME280;62290;59.420;17.842;2023-04-01T03:30:45;100580.47;;;25.97;13.95
14293;BME280;62290;59.420;17.842;2023-04-01T03:33:13;100582.13;;;25.98;14.22
14293;BME280;62290;59.420;17.842;2023-04-01T03:35:41;100589.25;;;25.99;14.26
14293;BME280;62290;59.420;17.842;2023-04-01T03:38:09;100591.09;;;25.98;14.14
14293;BME280;62290;59.420;17.842;2023-04-01T03:40:41;100595.50;;;25.99;13.89
14293;BME280;62290;59.420;17.842;2023-04-01T03:43:10;100593.63;;;26.00;14.37
14293;BME280;62290;59.420;17.842;2023-04-01T03:45:44;100594.66;;;25.99;14.03
14293;BME280;62290;59.420;17.842;2023-04-01T03:48:13;100598.22;;;25.99;14.41
14293;BME280;62290;59.420;17.842;2023-04-01T03:50:41;100598.22;;;25.99;13.90
14293;BME280;62290;59.420;17.842;2023-04-01T03:53:10;100606.16;;;26.01;14.29
14293;BME280;62290;59.420;17.842;2023-04-01T03:55:41;100600.06;;;25.99;14.11
14293;BME280;62290;59.420;17.842;2023-04-01T03:58:09;100607.13;;;26.00;14.39
14293;BME280;62290;59.420;17.842;2023-04-01T04:00:38;100604.75;;;25.97;14.30
14293;BME280;62290;59.420;17.842;2023-04-01T04:03:10;100608.69;;;26.02;13.91
14293;BME280;62290;59.420;17.842;2023-04-01T04:05:46;100600.19;;;25.97;14.16
14293;BME280;62290;59.420;17.842;2023-04-01T04:08:16;100598.63;;;25.95;14.13
14293;BME280;62290;59.420;17.842;2023-04-01T04:10:44;100619.47;;;26.02;14.19
14293;BME280;62290;59.420;17.842;2023-04-01T04:13:13;100594.69;;;25.89;14.05
14293;BME280;62290;59.420;17.842;2023-04-01T04:15:48;100616.78;;;26.02;14.39
14293;BME280;62290;59.420;17.842;2023-04-01T04:18:17;100622.19;;;26.02;14.25
14293;BME280;62290;59.420;17.842;2023-04-01T04:20:46;100596.41;;;25.90;14.02
14293;BME280;62290;59.420;17.842;2023-04-01T04:23:17;100624.75;;;26.04;13.95
14293;BME280;62290;59.420;17.842;2023-04-01T04:25:53;100631.81;;;26.05;14.21
14293;BME280;62290;59.420;17.842;2023-04-01T04:28:21;100622.91;;;26.04;14.25
14293;BME280;62290;59.420;17.842;2023-04-01T04:30:51;100626.44;;;26.05;14.43
14293;BME280;62290;59.420;17.842;2023-04-01T04:33:21;100631.81;;;26.05;13.92
14293;BME280;62290;59.420;17.842;2023-04-01T04:35:50;100640.94;;;26.04;14.30
14293;BME280;62290;59.420;17.842;2023-04-01T04:38:19;100635.69;;;26.02;14.41
14293;BME280;62290;59.420;17.842;2023-04-01T04:40:47;100640.41;;;26.00;14.41
14293;BME280;62290;59.420;17.842;2023-04-01T04:43:15;100645.78;;;26.00;14.20
14293;BME280;62290;59.420;17.842;2023-04-01T04:45:44;100644.25;;;25.98;14.28
14293;BME280;62290;59.420;17.842;2023-04-01T04:48:14;100655.91;;;25.98;14.01
14293;BME280;62290;59.420;17.842;2023-04-01T04:50:48;100655.06;;;25.98;14.21
14293;BME280;62290;59.420;17.842;2023-04-01T04:53:19;100656.91;;;25.97;14.17
14293;BME280;62290;59.420;17.842;2023-04-01T04:55:48;100656.06;;;25.97;14.58
14293;BME280;62290;59.420;17.842;2023-04-01T04:58:46;100657.34;;;25.93;14.18
14293;BME280;62290;59.420;17.842;2023-04-01T05:01:18;100651.38;;;25.89;14.16
14293;BME280;62290;59.420;17.842;2023-04-01T05:03:47;100673.09;;;25.97;14.54
14293;BME280;62290;59.420;17.842;2023-04-01T05:06:16;100668.72;;;25.96;14.22
14293;BME280;62290;59.420;17.842;2023-04-01T05:08:48;100675.09;;;25.95;14.75
14293;BME280;62290;59.420;17.842;2023-04-01T05:11:18;100676.81;;;25.96;14.65
14293;BME280;62290;59.420;17.842;2023-04-01T05:13:48;100640.94;;;25.76;14.60
14293;BME280;62290;59.420;17.842;2023-04-01T05:16:18;100680.38;;;25.97;14.69
14293;BME280;62290;59.420;17.842;2023-04-01T05:18:47;100689.28;;;25.97;14.23
14293;BME280;62290;59.420;17.842;2023-04-01T05:21:16;100694.56;;;25.99;14.27
14293;BME280;62290;59.420;17.842;2023-04-01T05:23:45;100664.38;;;25.76;14.34
14293;BME280;62290;59.420;17.842;2023-04-01T05:26:14;100694.56;;;25.99;14.37
14293;BME280;62290;59.420;17.842;2023-04-01T05:28:42;100705.50;;;25.97;14.58
14293;BME280;62290;59.420;17.842;2023-04-01T05:31:10;100707.22;;;25.98;14.75
14293;BME280;62290;59.420;17.842;2023-04-01T05:33:41;100711.47;;;26.01;14.42
14293;BME280;62290;59.420;17.842;2023-04-01T05:36:10;100717.16;;;25.98;14.41
14293;BME280;62290;59.420;17.842;2023-04-01T05:38:42;100705.78;;;25.94;14.64
14293;BME280;62290;59.420;17.842;2023-04-01T05:41:12;100712.91;;;25.95;14.25
14293;BME280;62290;59.420;17.842;2023-04-01T05:43:43;100720.56;;;26.00;14.46
14293;BME280;62290;59.420;17.842;2023-04-01T05:46:44;100726.81;;;26.00;14.69
14293;BME280;62290;59.420;17.842;2023-04-01T05:49:24;100722.25;;;26.01;14.74
14293;BME280;62290;59.420;17.842;2023-04-01T05:51:54;100728.53;;;26.01;14.76
14293;BME280;62290;59.420;17.842;2023-04-01T05:54:24;100705.56;;;25.88;14.30
14293;BME280;62290;59.420;17.842;2023-04-01T05:56:52;100728.53;;;26.01;14.42
14293;BME280;62290;59.420;17.842;2023-04-01T05:59:20;100730.19;;;26.02;14.74
14293;BME280;62290;59.420;17.842;2023-04-01T06:01:49;100702.28;;;25.84;14.80
14293;BME280;62290;59.420;17.842;2023-04-01T06:04:18;100728.81;;;25.98;14.47
14293;BME280;62290;59.420;17.842;2023-04-01T06:06:47;100736.34;;;26.04;14.54
14293;BME280;62290;59.420;17.842;2023-04-01T06:09:17;100736.16;;;26.06;14.39
14293;BME280;62290;59.420;17.842;2023-04-01T06:12:17;100731.91;;;26.03;14.39
14293;BME280;62290;59.420;17.842;2023-04-01T06:15:02;100735.31;;;26.05;14.42
14293;BME280;62290;59.420;17.842;2023-04-01T06:17:43;100733.47;;;26.06;14.52
14293;BME280;62290;59.420;17.842;2023-04-01T06:20:22;100710.19;;;25.95;14.74
14293;BME280;62290;59.420;17.842;2023-04-01T06:23:08;100731.31;;;26.09;14.58
14293;BME280;62290;59.420;17.842;2023-04-01T06:25:44;100741.88;;;26.12;14.77
14293;BME280;62290;59.420;17.842;2023-04-01T06:28:58;100742.56;;;26.14;14.78
14293;BME280;62290;59.420;17.842;2023-04-01T06:31:47;100747.66;;;26.17;14.91
14293;BME280;62290;59.420;17.842;2023-04-01T06:37:44;100757.31;;;26.20;14.41
14293;BME280;62290;59.420;17.842;2023-04-01T06:40:41;100734.44;;;26.05;14.80
14293;BME280;62290;59.420;17.842;2023-04-01T06:43:18;100766.81;;;26.24;15.03
14293;BME280;62290;59.420;17.842;2023-04-01T06:46:17;100765.81;;;26.25;14.64
14293;BME280;62290;59.420;17.842;2023-04-01T06:49:24;100771.06;;;26.26;14.79
14293;BME280;62290;59.420;17.842;2023-04-01T06:52:19;100776.75;;;26.23;15.01
14293;BME280;62290;59.420;17.842;2023-04-01T06:55:21;100781.88;;;26.26;14.60
14293;BME280;62290;59.420;17.842;2023-04-01T06:58:26;100783.88;;;26.24;15.17
14293;BME280;62290;59.420;17.842;2023-04-01T07:00:58;100781.88;;;26.26;14.87
14293;BME280;62290;59.420;17.842;2023-04-01T07:03:33;100791.81;;;26.26;14.53
14293;BME280;62290;59.420;17.842;2023-04-01T07:06:06;100790.97;;;26.25;14.76
14293;BME280;62290;59.420;17.842;2023-04-01T07:08:43;100794.00;;;26.22;14.90
14293;BME280;62290;59.420;17.842;2023-04-01T07:11:20;100800.94;;;26.25;14.61
14293;BME280;62290;59.420;17.842;2023-04-01T07:14:30;100791.81;;;26.26;14.58
14293;BME280;62290;59.420;17.842;2023-04-01T07:17:04;100798.09;;;26.26;14.77
14293;BME280;62290;59.420;17.842;2023-04-01T07:19:40;100795.25;;;26.28;14.62
14293;BME280;62290;59.420;17.842;2023-04-01T07:22:19;100810.31;;;26.30;14.58
14293;BME280;62290;59.420;17.842;2023-04-01T07:25:11;100814.56;;;26.33;14.89
14293;BME280;62290;59.420;17.842;2023-04-01T07:27:41;100814.25;;;26.36;14.67
14293;BME280;62290;59.420;17.842;2023-04-01T07:30:14;100813.81;;;26.41;14.73
14293;BME280;62290;59.420;17.842;2023-04-01T07:32:47;100820.78;;;26.43;14.98
14293;BME280;62290;59.420;17.842;2023-04-01T07:35:23;100824.00;;;26.47;14.89
14293;BME280;62290;59.420;17.842;2023-04-01T07:38:06;100830.81;;;26.51;14.49
14293;BME280;62290;59.420;17.842;2023-04-01T07:40:43;100828.13;;;26.51;14.58
14293;BME280;62290;59.420;17.842;2023-04-01T07:43:30;100827.81;;;26.54;14.49
14293;BME280;62290;59.420;17.842;2023-04-01T07:46:34;100832.38;;;26.53;14.55
14293;BME280;62290;59.420;17.842;2023-04-01T07:49:11;100821.56;;;26.53;14.85
14293;BME280;62290;59.420;17.842;2023-04-01T07:51:47;100839.91;;;26.59;14.79
14293;BME280;62290;59.420;17.842;2023-04-01T07:54:22;100839.72;;;26.61;14.56
14293;BME280;62290;59.420;17.842;2023-04-01T07:56:59;100843.00;;;26.64;14.89
14293;BME280;62290;59.420;17.842;2023-04-01T07:59:59;100844.53;;;26.67;14.97
14293;BME280;62290;59.420;17.842;2023-04-01T08:03:06;100843.53;;;26.68;14.95
14293;BME280;62290;59.420;17.842;2023-04-01T08:05:41;100846.91;;;26.70;14.83
14293;BME280;62290;59.420;17.842;2023-04-01T08:08:19;100844.09;;;26.71;15.05
14293;BME280;62290;59.420;17.842;2023-04-01T08:11:03;100853.75;;;26.74;15.12
14293;BME280;62290;59.420;17.842;2023-04-01T08:14:02;100846.31;;;26.76;15.14
14293;BME280;62290;59.420;17.842;2023-04-01T08:16:56;100847.91;;;26.78;14.80
14293;BME280;62290;59.420;17.842;2023-04-01T08:19:48;100856.72;;;26.80;14.97
14293;BME280;62290;59.420;17.842;2023-04-01T08:22:23;100848.59;;;26.80;15.09
14293;BME280;62290;59.420;17.842;2023-04-01T08:25:01;100854.72;;;26.82;14.94
14293;BME280;62290;59.420;17.842;2023-04-01T08:27:34;100843.19;;;26.80;14.92
14293;BME280;62290;59.420;17.842;2023-04-01T08:30:16;100856.81;;;26.88;14.88
14293;BME280;62290;59.420;17.842;2023-04-01T08:32:47;100862.09;;;26.90;15.11
14293;BME280;62290;59.420;17.842;2023-04-01T08:35:24;100855.34;;;26.94;14.94
14293;BME280;62290;59.420;17.842;2023-04-01T08:38:01;100844.16;;;26.89;14.97
14293;BME280;62290;59.420;17.842;2023-04-01T08:47:50;100864.72;;;27.00;14.90
14293;BME280;62290;59.420;17.842;2023-04-01T08:50:33;100865.56;;;27.00;14.77
14293;BME280;62290;59.420;17.842;2023-04-01T08:53:21;100857.19;;;26.93;14.85
14293;BME280;62290;59.420;17.842;2023-04-01T08:56:06;100863.72;;;27.01;14.40
14293;BME280;62290;59.420;17.842;2023-04-01T08:59:01;100870.97;;;27.00;14.47
14293;BME280;62290;59.420;17.842;2023-04-01T09:05:29;100872.66;;;27.01;14.77
14293;BME280;62290;59.420;17.842;2023-04-01T09:08:15;100892.63;;;27.00;14.24
14293;BME280;62290;59.420;17.842;2023-04-01T09:11:01;100880.38;;;26.96;14.39
14293;BME280;62290;59.420;17.842;2023-04-01T09:14:10;100884.97;;;26.95;14.68
14293;BME280;62290;59.420;17.842;2023-04-01T09:20:04;100872.50;;;26.85;14.75
14293;BME280;62290;59.420;17.842;2023-04-01T09:22:47;100883.41;;;26.93;14.86
14293;BME280;62290;59.420;17.842;2023-04-01T09:25:36;100885.97;;;26.94;14.56
14293;BME280;62290;59.420;17.842;2023-04-01T09:28:15;100890.50;;;26.94;14.68
14293;BME280;62290;59.420;17.842;2023-04-01T09:31:08;100895.91;;;26.94;14.80
14293;BME280;62290;59.420;17.842;2023-04-01T09:34:43;100880.34;;;26.78;14.72
14293;BME280;62290;59.420;17.842;2023-04-01T09:37:21;100899.94;;;26.90;14.62
14293;BME280;62290;59.420;17.842;2023-04-01T09:40:11;100902.78;;;26.88;14.50
14293;BME280;62290;59.420;17.842;2023-04-01T09:42:55;100903.81;;;26.87;14.63
14293;BME280;62290;59.420;17.842;2023-04-01T09:45:44;100877.22;;;26.73;14.46
14293;BME280;62290;59.420;17.842;2023-04-01T09:48:24;100909.22;;;26.87;14.57
14293;BME280;62290;59.420;17.842;2023-04-01T09:51:05;100907.38;;;26.88;14.70
14293;BME280;62290;59.420;17.842;2023-04-01T09:53:51;100909.22;;;26.87;14.44
14293;BME280;62290;59.420;17.842;2023-04-01T10:00:10;100907.78;;;26.83;14.48
14293;BME280;62290;59.420;17.842;2023-04-01T10:09:37;100924.03;;;26.83;14.53
14293;BME280;62290;59.420;17.842;2023-04-01T10:15:50;100928.56;;;26.83;15.27
14293;BME280;62290;59.420;17.842;2023-04-01T10:18:50;100933.97;;;26.83;15.54
14293;BME280;62290;59.420;17.842;2023-04-01T10:21:59;100930.00;;;26.87;16.52
14293;BME280;62290;59.420;17.842;2023-04-01T10:25:10;100932.41;;;26.90;17.77
14293;BME280;62290;59.420;17.842;2023-04-01T10:28:06;100935.78;;;26.92;19.59
14293;BME280;62290;59.420;17.842;2023-04-01T10:31:47;100934.09;;;26.91;20.99
14293;BME280;62290;59.420;17.842;2023-04-01T10:34:53;100936.50;;;26.94;20.97
14293;BME280;62290;59.420;17.842;2023-04-01T10:37:43;100938.75;;;26.98;20.47
14293;BME280;62290;59.420;17.842;2023-04-01T10:40:38;100950.13;;;27.02;19.70
14293;BME280;62290;59.420;17.842;2023-04-01T10:47:02;100947.28;;;27.04;19.09
14293;BME280;62290;59.420;17.842;2023-04-01T10:53:27;100946.81;;;27.08;18.52
14293;BME280;62290;59.420;17.842;2023-04-01T10:56:50;100949.34;;;27.10;18.11
14293;BME280;62290;59.420;17.842;2023-04-01T11:00:14;100951.94;;;27.11;18.10
14293;BME280;62290;59.420;17.842;2023-04-01T11:07:22;100936.88;;;26.99;17.11
14293;BME280;62290;59.420;17.842;2023-04-01T11:10:44;100950.91;;;27.12;17.27
14293;BME280;62290;59.420;17.842;2023-04-01T11:13:44;100954.47;;;27.13;16.92
14293;BME280;62290;59.420;17.842;2023-04-01T11:19:47;100936.47;;;27.04;16.66
14293;BME280;62290;59.420;17.842;2023-04-01T11:22:46;100956.03;;;27.15;16.59
14293;BME280;62290;59.420;17.842;2023-04-01T11:25:45;100953.31;;;27.15;16.35
14293;BME280;62290;59.420;17.842;2023-04-01T11:31:44;100955.53;;;27.02;16.21
14293;BME280;62290;59.420;17.842;2023-04-01T11:34:41;100956.63;;;27.09;15.85
14293;BME280;62290;59.420;17.842;2023-04-01T11:37:26;100967.59;;;27.08;15.66
14293;BME280;62290;59.420;17.842;2023-04-01T11:40:27;100970.75;;;27.03;15.80
14293;BME280;62290;59.420;17.842;2023-04-01T11:43:29;100974.22;;;26.95;15.58
14293;BME280;62290;59.420;17.842;2023-04-01T11:46:39;100965.09;;;26.96;15.34
14293;BME280;62290;59.420;17.842;2023-04-01T11:49:25;100976.94;;;26.95;15.42
14293;BME280;62290;59.420;17.842;2023-04-01T11:55:23;100972.97;;;26.90;14.97
14293;BME280;62290;59.420;17.842;2023-04-01T11:58:12;100973.09;;;26.88;15.27
14293;BME280;62290;59.420;17.842;2023-04-01T12:01:15;100977.69;;;26.88;15.31
14293;BME280;62290;59.420;17.842;2023-04-01T12:06:44;100977.69;;;26.88;14.81
14293;BME280;62290;59.420;17.842;2023-04-01T12:09:22;100983.78;;;26.90;16.02
14293;BME280;62290;59.420;17.842;2023-04-01T12:12:06;100987.03;;;26.93;16.43
14293;BME280;62290;59.420;17.842;2023-04-01T12:14:41;100985.03;;;26.95;17.65
14293;BME280;62290;59.420;17.842;2023-04-01T12:17:26;100986.59;;;26.98;17.76
14293;BME280;62290;59.420;17.842;2023-04-01T12:20:01;100988.28;;;26.99;18.34
14293;BME280;62290;59.420;17.842;2023-04-01T12:22:41;100991.56;;;27.03;17.97
14293;BME280;62290;59.420;17.842;2023-04-01T12:25:22;101010.88;;;27.08;17.90
14293;BME280;62290;59.420;17.842;2023-04-01T12:28:05;100998.22;;;27.08;16.91
14293;BME280;62290;59.420;17.842;2023-04-01T12:30:56;101006.16;;;27.10;16.83
14293;BME280;62290;59.420;17.842;2023-04-01T12:36:26;101022.97;;;27.13;16.81
14293;BME280;62290;59.420;17.842;2023-04-01T12:39:19;101016.53;;;27.14;16.58
14293;BME280;62290;59.420;17.842;2023-04-01T12:41:54;101019.25;;;27.14;16.02
14293;BME280;62290;59.420;17.842;2023-04-01T12:44:41;101016.41;;;27.16;16.02
14293;BME280;62290;59.420;17.842;2023-04-01T12:47:24;101030.63;;;27.18;15.72
14293;BME280;62290;59.420;17.842;2023-04-01T12:50:18;101028.91;;;27.17;15.52
14293;BME280;62290;59.420;17.842;2023-04-01T12:53:06;101032.47;;;27.17;15.56
14293;BME280;62290;59.420;17.842;2023-04-01T12:55:39;101028.22;;;27.15;15.32
14293;BME280;62290;59.420;17.842;2023-04-01T13:01:30;101047.03;;;27.16;15.28
14293;BME280;62290;59.420;17.842;2023-04-01T13:07:31;101061.53;;;27.15;15.34
14293;BME280;62290;59.420;17.842;2023-04-01T13:10:09;101053.25;;;27.17;15.14
14293;BME280;62290;59.420;17.842;2023-04-01T13:13:21;101056.81;;;27.17;14.70
14293;BME280;62290;59.420;17.842;2023-04-01T13:15:54;101066.78;;;27.17;16.85
14293;BME280;62290;59.420;17.842;2023-04-01T13:18:32;101072.75;;;27.20;17.57
14293;BME280;62290;59.420;17.842;2023-04-01T13:21:12;101072.47;;;27.23;17.76
14293;BME280;62290;59.420;17.842;2023-04-01T13:23:54;101080.59;;;27.23;17.26
14293;BME280;62290;59.420;17.842;2023-04-01T13:26:28;101055.28;;;27.15;17.07
14293;BME280;62290;59.420;17.842;2023-04-01T13:29:04;101063.56;;;27.13;16.45
14293;BME280;62290;59.420;17.842;2023-04-01T13:31:49;101068.38;;;27.19;16.38
14293;BME280;62290;59.420;17.842;2023-04-01T13:34:35;101085.72;;;27.26;16.22
14293;BME280;62290;59.420;17.842;2023-04-01T13:37:25;101106.66;;;27.24;15.80
14293;BME280;62290;59.420;17.842;2023-04-01T13:40:28;101109.50;;;27.23;15.86
14293;BME280;62290;59.420;17.842;2023-04-01T13:43:05;101106.97;;;27.21;15.80
14293;BME280;62290;59.420;17.842;2023-04-01T13:45:46;101108.81;;;27.21;15.18
14293;BME280;62290;59.420;17.842;2023-04-01T13:48:34;101115.94;;;27.22;15.53
14293;BME280;62290;59.420;17.842;2023-04-01T13:51:21;101116.34;;;27.17;15.45
14293;BME280;62290;59.420;17.842;2023-04-01T13:57:23;101116.09;;;27.11;15.03
14293;BME280;62290;59.420;17.842;2023-04-01T14:00:21;101119.09;;;27.08;14.95
14293;BME280;62290;59.420;17.842;2023-04-01T14:03:09;101120.25;;;27.05;15.10
14293;BME280;62290;59.420;17.842;2023-04-01T14:05:55;101112.28;;;27.04;14.63
14293;BME280;62290;59.420;17.842;2023-04-01T14:08:36;101116.84;;;27.03;14.54
14293;BME280;62290;59.420;17.842;2023-04-01T14:11:16;101114.88;;;26.95;14.93
14293;BME280;62290;59.420;17.842;2023-04-01T14:13:53;101119.53;;;27.03;14.93
14293;BME280;62290;59.420;17.842;2023-04-01T14:17:03;101122.25;;;27.03;14.97
14293;BME280;62290;59.420;17.842;2023-04-01T14:19:49;101119.84;;;27.00;14.59
14293;BME280;62290;59.420;17.842;2023-04-01T14:22:28;101131.50;;;27.01;14.59
14293;BME280;62290;59.420;17.842;2023-04-01T14:27:57;101137.75;;;27.01;14.28
14293;BME280;62290;59.420;17.842;2023-04-01T14:30:38;101132.34;;;27.01;14.47
14293;BME280;62290;59.420;17.842;2023-04-01T14:33:23;101131.50;;;27.01;14.11
14293;BME280;62290;59.420;17.842;2023-04-01T14:36:03;101140.91;;;26.96;14.10
14293;BME280;62290;59.420;17.842;2023-04-01T14:38:47;101150.28;;;27.02;14.01
14293;BME280;62290;59.420;17.842;2023-04-01T14:41:31;101144.19;;;27.00;14.23
14293;BME280;62290;59.420;17.842;2023-04-01T14:44:30;101153.97;;;27.01;13.95
14293;BME280;62290;59.420;17.842;2023-04-01T14:47:25;101158.56;;;27.01;14.29
14293;BME280;62290;59.420;17.842;2023-04-01T14:50:05;101154.44;;;26.96;14.13
14293;BME280;62290;59.420;17.842;2023-04-01T14:52:36;101160.53;;;26.98;14.11
14293;BME280;62290;59.420;17.842;2023-04-01T14:55:19;101171.22;;;27.00;14.26